Time;durP1;ratioP1;P1;durP2;ratioP2;P2;SDS_P1;SDS_P2;PMS_P1;PMS_P2;Temp;Humidity;BMP_temperature;BMP_pressure;BME280_temperature;BME280_humidity;BME280_pressure;Samples;Min_cycle;Max_cycle;Signal;HPM_P1;HPM_P2
2021/12/07 00:02:23;;;;;;;6.93;4.20;;;2.90;79.70;;;;;;4966246;28;20588;-74
2021/12/07 00:04:49;;;;;;;7.23;4.00;;;3.00;79.60;;;;;;4964382;28;20192;-75
2021/12/07 00:07:15;;;;;;;5.13;3.67;;;3.00;79.30;;;;;;4961273;28;20219;-74
2021/12/07 00:09:44;;;;;;;6.70;3.78;;;3.00;78.90;;;;;;4964095;28;20276;-75
2021/12/07 00:12:10;;;;;;;9.17;4.23;;;3.10;78.70;;;;;;4978366;28;20199;-74
2021/12/07 00:14:41;;;;;;;7.20;4.27;;;3.10;78.70;;;;;;4977652;28;20910;-74
2021/12/07 00:17:08;;;;;;;7.23;4.23;;;3.20;78.70;;;;;;4970200;28;20774;-75
2021/12/07 00:19:34;;;;;;;6.60;4.57;;;3.20;78.60;;;;;;4964413;28;20517;-75
2021/12/07 00:22:02;;;;;;;6.47;4.13;;;3.10;78.70;;;;;;4966061;28;20866;-74
2021/12/07 00:24:28;;;;;;;8.68;4.68;;;3.10;78.90;;;;;;4966593;28;20270;-75
2021/12/07 00:26:54;;;;;;;7.50;4.30;;;3.10;79.30;;;;;;4984049;28;20255;-75
2021/12/07 00:29:20;;;;;;;7.53;4.40;;;3.10;79.60;;;;;;4963278;28;20433;-75
2021/12/07 00:31:54;;;;;;;8.50;4.10;;;3.10;79.30;;;;;;4964207;28;20187;-75
2021/12/07 00:36:59;;;;;;;6.95;4.45;;;3.10;80.30;;;;;;4954278;28;20425;-76
2021/12/07 00:39:26;;;;;;;7.57;4.78;;;3.10;80.00;;;;;;4962596;28;20242;-75
2021/12/07 00:41:53;;;;;;;9.63;5.07;;;3.10;80.60;;;;;;4962388;28;20728;-75
2021/12/07 00:44:20;;;;;;;8.40;4.60;;;3.00;80.90;;;;;;4960479;28;20191;-75
2021/12/07 00:46:47;;;;;;;7.72;4.80;;;3.00;81.50;;;;;;4962133;28;20194;-74
2021/12/07 00:49:14;;;;;;;8.48;4.82;;;3.00;82.20;;;;;;4960706;28;20270;-74
2021/12/07 00:51:39;;;;;;;8.02;4.90;;;3.00;83.40;;;;;;4966748;28;20198;-77
2021/12/07 00:54:06;;;;;;;11.77;5.20;;;3.00;85.00;;;;;;4967429;28;20665;-75
2021/12/07 00:56:32;;;;;;;11.63;5.30;;;2.90;86.80;;;;;;4969727;28;20183;-76
2021/12/07 00:58:58;;;;;;;9.32;5.65;;;2.80;88.10;;;;;;4964771;28;20204;-76
2021/12/07 01:01:24;;;;;;;8.13;4.80;;;2.70;89.00;;;;;;4974194;28;20192;-74
2021/12/07 01:03:51;;;;;;;8.77;5.10;;;2.70;89.70;;;;;;5049230;28;20175;-73
2021/12/07 01:25:50;;;;;;;10.27;5.15;;;2.30;93.00;;;;;;5070721;28;20261;-73
2021/12/07 01:36:06;;;;;;;9.15;5.10;;;2.30;93.20;;;;;;5070772;28;20235;-73
2021/12/07 01:59:56;;;;;;;7.63;3.90;;;2.60;93.10;;;;;;5051642;28;20194;-73
2021/12/07 02:02:26;;;;;;;10.03;4.50;;;2.60;93.00;;;;;;5011191;28;20662;-72
2021/12/07 02:04:52;;;;;;;7.55;4.40;;;2.60;93.10;;;;;;5042660;28;20500;-73
2021/12/07 02:07:18;;;;;;;7.05;4.43;;;2.60;93.40;;;;;;5000859;28;20317;-73
2021/12/07 02:09:48;;;;;;;8.50;4.87;;;2.50;93.70;;;;;;5035985;28;20208;-74
2021/12/07 02:12:15;;;;;;;8.38;4.40;;;2.60;94.10;;;;;;5026019;28;20521;-73
2021/12/07 02:14:42;;;;;;;10.50;4.78;;;2.50;94.30;;;;;;5027258;28;20243;-73
2021/12/07 02:17:12;;;;;;;10.48;5.63;;;2.50;94.60;;;;;;5021557;28;20548;-72
2021/12/07 02:19:38;;;;;;;7.70;4.63;;;2.40;94.70;;;;;;5023079;28;20215;-73
2021/12/07 02:22:05;;;;;;;11.23;5.43;;;2.50;95.00;;;;;;5023627;28;20217;-73
2021/12/07 02:24:32;;;;;;;7.55;4.50;;;2.50;95.10;;;;;;5024966;28;20267;-74
2021/12/07 02:26:58;;;;;;;7.70;4.43;;;2.50;95.20;;;;;;5029761;28;20266;-73
2021/12/07 02:29:24;;;;;;;8.00;4.22;;;2.50;95.20;;;;;;5024938;28;20176;-74
2021/12/07 02:31:52;;;;;;;7.25;3.75;;;2.50;95.20;;;;;;5041224;28;20184;-73
2021/12/07 02:34:18;;;;;;;5.83;3.60;;;2.50;95.20;;;;;;5033205;28;22603;-73
2021/12/07 02:36:45;;;;;;;7.28;4.20;;;2.60;95.00;;;;;;5001891;28;20909;-73
2021/12/07 02:39:12;;;;;;;6.70;3.90;;;2.70;94.90;;;;;;5038720;28;20207;-74
2021/12/07 02:41:39;;;;;;;5.80;3.80;;;2.70;94.70;;;;;;5024078;28;20229;-73
2021/12/07 02:44:07;;;;;;;8.80;4.30;;;2.80;94.60;;;;;;5035402;28;20741;-74
2021/12/07 02:46:35;;;;;;;5.45;3.67;;;2.80;94.60;;;;;;5055382;28;20661;-74
2021/12/07 02:49:00;;;;;;;7.07;4.13;;;2.80;94.70;;;;;;5012286;28;20203;-72
2021/12/07 02:51:26;;;;;;;6.43;3.40;;;2.80;94.80;;;;;;5027786;28;20703;-73
2021/12/07 02:53:54;;;;;;;6.73;3.50;;;2.80;94.90;;;;;;5016886;28;20168;-72
2021/12/07 02:56:20;;;;;;;6.53;3.65;;;2.80;94.80;;;;;;5030383;28;20461;-73
2021/12/07 02:58:46;;;;;;;5.00;3.00;;;2.80;95.10;;;;;;5026917;28;20203;-73
2021/12/07 03:01:21;;;;;;;5.60;3.30;;;2.80;94.90;;;;;;5028852;28;20429;-75
2021/12/07 03:03:58;;;;;;;6.05;3.63;;;2.80;94.90;;;;;;5011334;28;20183;-72
2021/12/07 03:09:53;;;;;;;4.70;2.80;;;2.80;95.30;;;;;;4979867;28;20200;-72
2021/12/07 03:28:07;;;;;;;5.22;2.85;;;2.70;96.70;;;;;;5021691;28;20578;-72
2021/12/07 03:30:34;;;;;;;3.35;2.65;;;2.70;96.90;;;;;;5025345;28;20280;-72
2021/12/07 03:33:00;;;;;;;6.18;2.75;;;2.70;97.00;;;;;;5017348;28;20176;-73
2021/12/07 03:35:26;;;;;;;3.40;2.75;;;2.70;97.00;;;;;;5024248;28;20231;-74
2021/12/07 03:37:53;;;;;;;4.53;2.60;;;2.80;97.20;;;;;;5028474;28;20188;-73
2021/12/07 03:40:19;;;;;;;3.78;2.60;;;2.80;97.10;;;;;;5024378;28;20211;-74
2021/12/07 03:42:45;;;;;;;3.10;2.10;;;2.80;97.10;;;;;;5033299;28;20184;-74
2021/12/07 03:45:11;;;;;;;4.00;2.50;;;2.80;97.00;;;;;;5040725;28;20191;-73
2021/12/07 03:47:37;;;;;;;3.83;2.15;;;2.80;96.90;;;;;;5013376;28;20211;-75
2021/12/07 03:50:05;;;;;;;4.28;2.20;;;2.80;96.90;;;;;;5044488;28;20252;-73
2021/12/07 03:52:31;;;;;;;3.85;2.17;;;2.80;96.90;;;;;;5010325;28;20192;-73
2021/12/07 03:54:57;;;;;;;4.30;2.20;;;2.80;96.80;;;;;;5037082;28;20264;-74
2021/12/07 03:57:23;;;;;;;4.80;2.50;;;2.80;96.80;;;;;;5049886;28;20446;-73
2021/12/07 03:59:48;;;;;;;3.40;1.80;;;2.80;96.90;;;;;;5042654;28;20202;-73
2021/12/07 04:02:14;;;;;;;6.07;2.33;;;2.80;97.00;;;;;;5037291;28;20220;-75
2021/12/07 04:04:40;;;;;;;2.40;1.80;;;2.90;97.00;;;;;;5025394;28;20179;-74
2021/12/07 04:07:06;;;;;;;3.87;2.13;;;2.90;97.00;;;;;;5027736;28;20430;-74
2021/12/07 04:09:32;;;;;;;3.87;2.00;;;3.00;97.10;;;;;;5030901;28;20198;-74
2021/12/07 04:11:59;;;;;;;3.60;2.53;;;2.90;96.90;;;;;;5032448;28;20426;-73
2021/12/07 04:14:25;;;;;;;5.15;2.40;;;3.00;96.90;;;;;;5022972;28;20545;-73
2021/12/07 04:16:51;;;;;;;3.37;2.10;;;3.00;96.90;;;;;;5030374;28;20176;-73
2021/12/07 04:19:17;;;;;;;2.65;1.75;;;3.00;97.00;;;;;;5040117;28;20472;-73
2021/12/07 04:21:42;;;;;;;3.27;1.80;;;3.00;96.90;;;;;;5024981;28;20188;-73
2021/12/07 04:24:08;;;;;;;2.00;1.50;;;3.10;96.90;;;;;;5039688;28;20198;-73
2021/12/07 04:26:34;;;;;;;2.20;1.70;;;3.10;96.90;;;;;;5019019;28;20427;-73
2021/12/07 04:29:00;;;;;;;4.22;1.98;;;3.10;96.80;;;;;;5041326;28;20282;-73
2021/12/07 04:31:26;;;;;;;5.47;1.90;;;3.10;96.70;;;;;;5056743;28;20595;-74
2021/12/07 04:33:52;;;;;;;2.03;1.92;;;3.10;96.70;;;;;;5015831;28;20175;-74
2021/12/07 04:36:18;;;;;;;3.27;2.00;;;3.20;96.70;;;;;;5018915;28;20207;-74
2021/12/07 04:38:44;;;;;;;3.30;1.90;;;3.20;96.60;;;;;;5036305;28;20221;-73
2021/12/07 04:41:10;;;;;;;5.37;2.23;;;3.30;96.70;;;;;;5019571;28;20210;-74
2021/12/07 04:43:38;;;;;;;4.87;1.90;;;3.30;96.70;;;;;;5022603;28;20427;-73
2021/12/07 04:59:06;;;;;;;2.97;1.90;;;3.30;96.10;;;;;;5061049;28;20284;-74
2021/12/07 05:01:33;;;;;;;4.55;2.05;;;3.50;96.20;;;;;;5037840;28;20176;-74
2021/12/07 05:04:05;;;;;;;8.00;2.30;;;3.60;96.10;;;;;;5043319;28;20183;-75
2021/12/07 05:06:33;;;;;;;5.87;2.27;;;3.60;95.90;;;;;;4995305;28;20210;-73
2021/12/07 05:09:07;;;;;;;4.13;1.97;;;3.60;96.00;;;;;;5023969;28;20972;-73
2021/12/07 05:12:23;;;;;;;4.60;2.05;;;3.60;96.00;;;;;;5016380;28;20554;-73
2021/12/07 05:14:30;;;;;;;9.00;2.42;;;3.60;95.90;;;;;;5025390;28;20258;-73
2021/12/07 05:25:15;;;;;;;7.18;2.70;;;3.30;96.00;;;;;;5029175;28;20229;-76
2021/12/07 05:38:34;;;;;;;3.75;2.00;;;3.00;96.50;;;;;;5045636;28;20289;-74
2021/12/07 05:41:00;;;;;;;4.93;1.90;;;3.00;96.50;;;;;;5013457;28;20197;-74
2021/12/07 05:43:26;;;;;;;3.72;1.85;;;3.10;96.00;;;;;;5027998;28;20197;-74
2021/12/07 05:45:52;;;;;;;3.23;2.03;;;3.10;95.80;;;;;;5028839;28;20194;-74
2021/12/07 05:48:46;;;;;;;3.43;2.13;;;3.10;95.70;;;;;;5020988;28;20211;-74
2021/12/07 05:52:05;;;;;;;4.50;2.28;;;3.10;95.60;;;;;;5007230;28;20419;-76
2021/12/07 05:54:31;;;;;;;5.57;2.53;;;3.10;95.40;;;;;;5036788;28;20204;-75
2021/12/07 05:56:57;;;;;;;4.13;2.67;;;3.20;95.20;;;;;;5021929;28;20178;-76
2021/12/07 05:59:22;;;;;;;6.87;2.30;;;3.20;95.20;;;;;;5030028;28;20551;-75
2021/12/07 06:01:48;;;;;;;5.63;2.13;;;3.30;95.10;;;;;;5019815;28;20225;-76
2021/12/07 06:04:14;;;;;;;5.00;2.30;;;3.30;95.00;;;;;;5028829;28;20191;-76
2021/12/07 06:06:40;;;;;;;7.00;2.43;;;3.30;95.00;;;;;;5014750;28;20738;-75
2021/12/07 06:09:06;;;;;;;6.00;2.17;;;3.40;94.90;;;;;;5030343;28;20219;-76
2021/12/07 06:11:32;;;;;;;9.13;2.47;;;3.40;94.70;;;;;;5021695;28;20425;-76
2021/12/07 06:13:58;;;;;;;9.60;2.27;;;3.40;94.70;;;;;;5035563;28;20705;-75
2021/12/07 06:16:29;;;;;;;9.85;2.67;;;3.40;94.50;;;;;;5022331;28;20602;-75
2021/12/07 06:18:55;;;;;;;5.97;2.28;;;3.40;94.50;;;;;;4981926;28;20328;-72
2021/12/07 06:21:20;;;;;;;4.93;2.30;;;3.40;94.30;;;;;;5015729;28;20684;-74
2021/12/07 06:23:46;;;;;;;4.27;2.17;;;3.50;94.20;;;;;;5026565;28;20316;-74
2021/12/07 06:26:12;;;;;;;6.27;2.77;;;3.60;93.70;;;;;;5027184;28;20187;-73
2021/12/07 06:28:38;;;;;;;5.67;2.30;;;3.60;93.30;;;;;;5048014;28;20307;-73
2021/12/07 06:31:04;;;;;;;4.93;2.20;;;3.50;93.00;;;;;;4972362;28;20437;-73
2021/12/07 06:33:30;;;;;;;8.90;2.50;;;3.50;92.90;;;;;;5040365;28;20194;-74
2021/12/07 06:36:00;;;;;;;4.03;2.50;;;3.50;92.50;;;;;;5029726;28;20490;-74
2021/12/07 06:38:32;;;;;;;9.38;2.70;;;3.60;92.60;;;;;;5034709;28;20640;-73
2021/12/07 06:40:59;;;;;;;6.55;3.78;;;3.60;92.60;;;;;;5027273;28;20638;-74
2021/12/07 06:43:25;;;;;;;7.70;2.90;;;3.70;92.60;;;;;;4991231;28;20183;-73
2021/12/07 06:45:51;;;;;;;6.40;2.80;;;3.70;92.40;;;;;;5019261;28;20249;-72
2021/12/07 06:48:17;;;;;;;4.45;2.60;;;3.80;92.30;;;;;;5009231;28;20557;-74
2021/12/07 06:50:43;;;;;;;5.33;2.50;;;3.80;92.00;;;;;;4966198;28;20195;-74
2021/12/07 06:53:09;;;;;;;5.23;2.40;;;3.80;91.90;;;;;;4988977;28;20495;-74
2021/12/07 06:55:36;;;;;;;5.77;2.20;;;3.90;91.50;;;;;;4968650;28;20242;-74
2021/12/07 06:58:03;;;;;;;6.25;2.20;;;3.90;91.40;;;;;;5007573;28;20442;-73
2021/12/07 07:00:29;;;;;;;5.80;2.00;;;4.00;91.40;;;;;;4970536;28;20204;-73
2021/12/07 07:02:55;;;;;;;5.78;2.55;;;4.00;91.10;;;;;;4981402;28;20425;-74
2021/12/07 07:05:22;;;;;;;9.30;2.57;;;4.00;91.00;;;;;;4968965;28;20187;-74
2021/12/07 07:07:47;;;;;;;4.80;2.03;;;4.00;90.80;;;;;;4980208;28;20203;-74
2021/12/07 07:10:16;;;;;;;7.40;2.37;;;4.10;90.70;;;;;;4990433;28;20573;-74
2021/12/07 07:12:42;;;;;;;3.97;2.10;;;4.10;90.40;;;;;;4969240;28;20210;-74
2021/12/07 07:15:09;;;;;;;4.57;1.80;;;4.10;90.00;;;;;;4966697;28;20818;-73
2021/12/07 07:17:36;;;;;;;7.27;2.73;;;4.20;90.00;;;;;;4983971;28;20443;-73
2021/12/07 07:20:03;;;;;;;4.17;2.10;;;4.30;90.00;;;;;;4973501;28;20414;-74
2021/12/07 07:22:29;;;;;;;9.63;2.50;;;4.30;89.90;;;;;;5009370;28;20998;-73
2021/12/07 07:24:55;;;;;;;7.77;3.33;;;4.30;90.10;;;;;;5030708;28;20426;-75
2021/12/07 07:27:20;;;;;;;9.57;3.63;;;4.40;89.60;;;;;;4985756;28;20234;-75
2021/12/07 07:29:46;;;;;;;9.10;3.27;;;4.40;89.60;;;;;;4961401;28;20199;-75
2021/12/07 07:32:12;;;;;;;9.53;3.07;;;4.40;89.60;;;;;;4965609;28;20191;-74
2021/12/07 07:34:38;;;;;;;4.47;2.47;;;4.30;89.60;;;;;;4965050;28;20985;-75
2021/12/07 07:37:04;;;;;;;6.63;1.90;;;4.30;89.90;;;;;;4984098;28;20184;-74
2021/12/07 07:39:30;;;;;;;2.70;2.47;;;4.30;89.90;;;;;;4972178;28;20423;-75
2021/12/07 07:41:55;;;;;;;3.60;2.00;;;4.20;90.00;;;;;;5027041;28;20553;-75
2021/12/07 07:44:21;;;;;;;4.23;2.30;;;4.10;89.60;;;;;;4964778;28;20190;-74
2021/12/07 07:46:47;;;;;;;4.73;2.53;;;4.10;89.90;;;;;;4974921;28;20187;-74
2021/12/07 07:49:13;;;;;;;5.10;2.20;;;4.20;90.00;;;;;;4964817;28;20542;-75
2021/12/07 07:51:39;;;;;;;11.17;2.70;;;4.10;90.10;;;;;;4982774;28;20187;-73
2021/12/07 07:54:05;;;;;;;3.13;2.00;;;4.10;89.90;;;;;;4980039;28;20440;-73
2021/12/07 07:56:32;;;;;;;9.73;2.63;;;4.10;89.30;;;;;;4966442;28;20524;-75
2021/12/07 07:58:58;;;;;;;6.95;2.55;;;4.10;89.90;;;;;;4963851;28;20529;-74
2021/12/07 08:01:28;;;;;;;8.48;3.00;;;4.10;90.10;;;;;;4961494;28;20241;-75
2021/12/07 08:03:54;;;;;;;10.85;2.50;;;4.10;90.40;;;;;;5025236;28;20232;-74
2021/12/07 08:06:20;;;;;;;5.33;2.43;;;4.20;90.60;;;;;;4962249;28;20195;-74
2021/12/07 08:08:46;;;;;;;8.00;2.67;;;4.30;90.30;;;;;;4964047;28;20462;-75
2021/12/07 08:11:13;;;;;;;6.07;2.90;;;4.40;90.00;;;;;;4965826;28;20211;-74
2021/12/07 08:13:40;;;;;;;6.50;2.50;;;4.30;90.00;;;;;;4969464;28;20503;-73
2021/12/07 08:16:06;;;;;;;6.77;3.00;;;4.30;90.00;;;;;;4984283;28;20477;-75
2021/12/07 08:18:32;;;;;;;5.30;2.57;;;4.30;89.90;;;;;;4960178;28;20435;-74
2021/12/07 08:20:58;;;;;;;5.60;2.43;;;4.30;89.70;;;;;;5011800;28;20416;-73
2021/12/07 08:23:23;;;;;;;8.60;2.90;;;4.30;89.90;;;;;;4963687;28;20288;-76
2021/12/07 08:25:49;;;;;;;9.40;2.90;;;4.30;89.00;;;;;;4980092;28;20193;-75
2021/12/07 08:28:19;;;;;;;4.40;2.50;;;4.30;88.60;;;;;;4963238;28;20246;-74
2021/12/07 08:30:46;;;;;;;5.30;2.57;;;4.30;89.00;;;;;;4997468;28;20431;-75
2021/12/07 08:33:12;;;;;;;5.63;2.60;;;4.40;88.70;;;;;;4960776;28;20434;-74
2021/12/07 08:35:39;;;;;;;4.30;2.47;;;4.40;88.60;;;;;;4967682;28;20486;-73
2021/12/07 08:38:05;;;;;;;9.53;2.70;;;4.40;88.30;;;;;;4978125;28;21304;-74
2021/12/07 08:40:33;;;;;;;4.43;2.60;;;4.50;87.30;;;;;;4959484;28;20428;-74
2021/12/07 08:43:02;;;;;;;9.27;2.10;;;4.50;87.30;;;;;;4986403;28;20509;-73
2021/12/07 08:45:28;;;;;;;10.50;3.20;;;4.50;87.60;;;;;;4972612;28;20427;-73
2021/12/07 08:47:54;;;;;;;3.57;2.30;;;4.60;87.40;;;;;;4980108;28;20442;-74
2021/12/07 08:50:25;;;;;;;9.67;2.40;;;4.60;86.30;;;;;;5025987;28;20187;-75
2021/12/07 08:52:53;;;;;;;8.53;2.67;;;4.60;86.60;;;;;;4970333;28;20430;-74
2021/12/07 09:00:50;;;;;;;10.00;2.40;;;4.80;86.00;;;;;;4961363;28;20680;-75
2021/12/07 09:03:16;;;;;;;3.37;2.30;;;4.70;85.30;;;;;;5023525;28;20779;-73
2021/12/07 09:05:41;;;;;;;4.53;2.40;;;4.70;85.30;;;;;;4969099;28;20518;-74
2021/12/07 09:08:07;;;;;;;7.80;2.40;;;4.80;85.00;;;;;;4965952;28;20212;-73
2021/12/07 09:10:33;;;;;;;5.20;3.03;;;4.80;84.90;;;;;;4969775;28;20226;-76
2021/12/07 09:12:58;;;;;;;6.10;2.50;;;4.90;84.30;;;;;;4965299;28;20191;-74
2021/12/07 09:15:25;;;;;;;4.97;2.40;;;5.00;83.60;;;;;;4967719;28;20207;-75
2021/12/07 09:17:50;;;;;;;5.60;2.40;;;5.00;83.30;;;;;;4971608;28;20199;-75
2021/12/07 09:20:16;;;;;;;9.83;2.40;;;5.00;83.70;;;;;;5003469;28;20752;-74
2021/12/07 09:22:47;;;;;;;5.93;2.13;;;5.00;82.70;;;;;;4975761;28;20247;-74
2021/12/07 09:25:13;;;;;;;8.13;2.43;;;5.10;82.70;;;;;;4966726;28;20447;-75
2021/12/07 09:27:39;;;;;;;3.97;2.60;;;5.00;82.80;;;;;;4968234;28;20476;-74
2021/12/07 09:30:08;;;;;;;4.90;2.30;;;4.90;83.40;;;;;;4967947;28;20426;-74
2021/12/07 09:32:34;;;;;;;4.83;2.03;;;5.00;83.00;;;;;;4987524;28;20427;-74
2021/12/07 09:35:02;;;;;;;10.60;3.37;;;5.00;82.80;;;;;;5006067;28;20462;-74
2021/12/07 09:37:28;;;;;;;4.53;2.27;;;5.00;83.30;;;;;;4961305;28;20792;-74
2021/12/07 09:39:54;;;;;;;4.73;1.80;;;5.10;83.10;;;;;;4962961;28;20415;-73
2021/12/07 09:42:20;;;;;;;5.50;1.93;;;5.10;82.70;;;;;;4964956;28;20554;-76
2021/12/07 09:44:46;;;;;;;8.13;2.20;;;5.20;81.90;;;;;;4966741;28;20576;-74
2021/12/07 09:47:12;;;;;;;9.80;2.57;;;5.30;81.10;;;;;;4966486;28;20480;-73
2021/12/07 09:49:38;;;;;;;6.30;1.97;;;5.20;79.70;;;;;;5017354;28;20460;-75
2021/12/07 09:52:05;;;;;;;5.43;2.33;;;5.30;79.50;;;;;;5007682;28;20434;-75
2021/12/07 09:54:31;;;;;;;5.67;2.23;;;5.30;78.00;;;;;;5013248;28;20516;-75
2021/12/07 09:56:57;;;;;;;6.83;2.10;;;5.30;79.20;;;;;;4982040;28;20430;-73
2021/12/07 09:59:23;;;;;;;12.23;2.40;;;5.30;79.00;;;;;;4995150;28;20415;-74
2021/12/07 10:01:49;;;;;;;3.17;1.93;;;5.30;78.00;;;;;;4985052;28;20261;-73
2021/12/07 10:04:15;;;;;;;4.10;2.10;;;5.30;77.80;;;;;;5022025;28;20237;-75
2021/12/07 10:06:41;;;;;;;10.20;3.10;;;5.20;77.10;;;;;;4970989;28;20518;-74
2021/12/07 10:09:07;;;;;;;11.10;2.30;;;5.30;76.80;;;;;;4978787;28;20478;-73
2021/12/07 10:11:34;;;;;;;11.23;2.60;;;5.40;77.10;;;;;;4971241;28;20203;-75
2021/12/07 10:14:01;;;;;;;5.23;1.80;;;5.40;77.00;;;;;;4967419;28;20443;-73
2021/12/07 10:16:26;;;;;;;13.27;2.23;;;5.50;76.50;;;;;;4964225;28;20468;-74
2021/12/07 10:18:52;;;;;;;6.00;1.70;;;5.40;76.70;;;;;;4964674;28;20445;-75
2021/12/07 10:21:38;;;;;;;3.00;1.50;;;5.40;77.40;;;;;;4962554;28;20655;-75
2021/12/07 10:24:11;;;;;;;7.73;1.70;;;5.60;77.10;;;;;;4968620;28;20418;-74
2021/12/07 10:26:42;;;;;;;9.27;2.13;;;5.70;75.20;;;;;;4958792;28;20427;-74
2021/12/07 10:29:12;;;;;;;3.70;2.00;;;5.80;75.20;;;;;;4965712;28;20453;-74
2021/12/07 10:31:51;;;;;;;5.23;1.87;;;5.90;74.80;;;;;;4962093;28;20427;-75
2021/12/07 10:34:21;;;;;;;3.13;1.93;;;6.00;73.70;;;;;;4976009;28;20522;-75
2021/12/07 10:36:51;;;;;;;11.93;2.30;;;6.10;73.70;;;;;;5027866;28;20928;-74
2021/12/07 10:39:33;;;;;;;4.17;2.07;;;6.20;73.70;;;;;;4966835;28;20432;-74
2021/12/07 10:42:10;;;;;;;4.80;2.00;;;6.20;73.00;;;;;;4973343;28;20406;-75
2021/12/07 10:44:38;;;;;;;7.13;1.87;;;6.10;73.50;;;;;;4972200;28;20967;-75
2021/12/07 10:47:05;;;;;;;7.07;2.60;;;6.20;73.30;;;;;;4969929;28;20419;-75
2021/12/07 10:49:51;;;;;;;9.20;1.90;;;6.30;71.70;;;;;;4967600;28;20469;-75
2021/12/07 10:52:33;;;;;;;7.00;2.03;;;6.30;71.40;;;;;;4969330;28;20425;-74
2021/12/07 10:55:20;;;;;;;6.83;1.80;;;6.60;69.80;;;;;;4958605;28;20469;-75
2021/12/07 10:57:51;;;;;;;7.00;1.83;;;6.50;68.60;;;;;;5005902;28;20446;-76
2021/12/07 11:00:33;;;;;;;7.83;2.03;;;6.30;69.20;;;;;;4965258;28;20533;-74
2021/12/07 11:03:10;;;;;;;5.70;1.90;;;6.20;70.50;;;;;;4966435;28;20449;-75
2021/12/07 11:05:46;;;;;;;5.10;1.60;;;6.30;70.10;;;;;;4959377;28;20430;-75
2021/12/07 11:08:13;;;;;;;2.30;1.70;;;6.30;67.60;;;;;;4963108;28;20447;-75
2021/12/07 11:10:47;;;;;;;6.00;1.63;;;6.20;67.90;;;;;;4971992;28;20449;-75
2021/12/07 11:13:35;;;;;;;4.47;1.83;;;6.30;68.30;;;;;;4962354;28;20435;-75
2021/12/07 11:16:05;;;;;;;4.50;1.90;;;6.20;67.30;;;;;;4961304;28;20477;-75
2021/12/07 11:18:34;;;;;;;8.70;2.03;;;6.10;66.70;;;;;;4969082;28;20442;-76
2021/12/07 11:21:11;;;;;;;4.90;2.00;;;6.20;66.70;;;;;;4983833;28;20498;-74
2021/12/07 11:23:43;;;;;;;5.80;1.60;;;6.30;66.30;;;;;;4999102;28;20418;-75
2021/12/07 11:31:38;;;;;;;3.80;1.53;;;6.30;66.00;;;;;;4960875;28;20426;-75
2021/12/07 11:34:39;;;;;;;2.87;1.73;;;6.40;66.00;;;;;;4962530;28;20502;-75
2021/12/07 11:37:07;;;;;;;4.63;2.20;;;6.30;65.70;;;;;;4964755;28;21079;-74
2021/12/07 11:39:35;;;;;;;2.70;1.43;;;6.30;65.80;;;;;;4961833;28;20465;-75
2021/12/07 11:42:24;;;;;;;5.70;1.40;;;6.30;66.30;;;;;;4967836;28;20411;-75
2021/12/07 11:44:52;;;;;;;7.20;1.83;;;6.30;66.00;;;;;;5005398;28;20445;-75
2021/12/07 11:47:39;;;;;;;5.00;1.80;;;6.50;66.60;;;;;;4963899;28;20435;-75
2021/12/07 11:50:25;;;;;;;7.50;1.90;;;6.50;66.70;;;;;;4976274;28;20422;-76
2021/12/07 11:52:58;;;;;;;4.40;1.70;;;6.40;66.90;;;;;;4963571;28;20446;-75
2021/12/07 11:55:24;;;;;;;7.07;2.10;;;6.30;67.50;;;;;;4966369;28;20470;-75
2021/12/07 11:57:51;;;;;;;9.20;1.73;;;6.30;67.70;;;;;;4970081;28;20447;-74
2021/12/07 12:00:25;;;;;;;8.70;1.97;;;6.30;68.20;;;;;;4959858;28;20439;-75
2021/12/07 12:02:50;;;;;;;5.53;2.07;;;6.40;67.90;;;;;;4971171;28;20415;-75
2021/12/07 12:05:17;;;;;;;3.80;1.70;;;6.30;68.00;;;;;;4969156;28;20994;-75
2021/12/07 12:07:45;;;;;;;3.10;1.80;;;6.20;68.00;;;;;;4965827;28;20789;-74
2021/12/07 12:10:14;;;;;;;8.37;2.70;;;6.20;69.50;;;;;;4972780;28;20450;-75
2021/12/07 12:13:09;;;;;;;4.30;2.20;;;6.20;70.20;;;;;;4967973;28;20423;-74
2021/12/07 12:16:08;;;;;;;5.23;2.03;;;6.20;71.00;;;;;;5011660;28;20457;-74
2021/12/07 12:18:39;;;;;;;8.50;2.00;;;6.20;71.60;;;;;;4981136;28;20442;-75
2021/12/07 12:21:20;;;;;;;3.63;1.90;;;6.10;72.40;;;;;;5033036;28;20420;-75
2021/12/07 12:23:50;;;;;;;10.13;1.47;;;6.10;73.00;;;;;;4975694;28;20461;-75
2021/12/07 12:26:24;;;;;;;4.40;1.83;;;6.10;73.00;;;;;;4972436;28;20484;-74
2021/12/07 12:28:51;;;;;;;8.80;2.13;;;6.30;72.70;;;;;;4974304;28;20528;-74
2021/12/07 12:31:19;;;;;;;3.97;1.67;;;6.50;71.10;;;;;;4968575;28;20959;-75
2021/12/07 12:33:52;;;;;;;4.67;2.03;;;6.60;70.50;;;;;;4972261;28;20422;-76
2021/12/07 12:36:20;;;;;;;4.17;1.70;;;6.60;70.20;;;;;;4968572;28;20493;-73
2021/12/07 12:39:01;;;;;;;5.23;1.70;;;6.50;70.70;;;;;;4982265;28;20857;-73
2021/12/07 12:41:27;;;;;;;7.43;1.90;;;6.50;69.80;;;;;;4966125;28;20897;-74
2021/12/07 12:44:05;;;;;;;5.57;1.70;;;6.50;70.50;;;;;;4965771;28;20419;-74
2021/12/07 12:46:33;;;;;;;6.03;1.60;;;6.50;70.50;;;;;;5014122;28;20428;-75
2021/12/07 12:49:05;;;;;;;3.00;1.47;;;6.60;69.90;;;;;;4963352;28;20511;-75
2021/12/07 12:51:42;;;;;;;5.07;1.87;;;6.70;70.20;;;;;;4982123;28;20430;-75
2021/12/07 12:54:08;;;;;;;2.27;1.50;;;7.00;69.50;;;;;;4964280;28;20430;-73
2021/12/07 12:56:36;;;;;;;4.70;1.50;;;7.20;68.80;;;;;;4982243;28;20472;-75
2021/12/07 12:59:05;;;;;;;7.83;1.80;;;7.40;67.90;;;;;;4967178;28;20478;-73
2021/12/07 13:01:33;;;;;;;6.20;1.87;;;7.50;66.40;;;;;;4968057;28;20808;-74
2021/12/07 13:04:04;;;;;;;6.30;1.73;;;7.30;64.50;;;;;;4971071;28;20632;-74
2021/12/07 13:06:39;;;;;;;3.97;1.70;;;7.10;64.80;;;;;;4968353;28;20430;-74
2021/12/07 13:09:10;;;;;;;4.57;2.33;;;6.80;65.30;;;;;;4974048;28;20949;-76
2021/12/07 13:11:43;;;;;;;9.97;2.83;;;6.70;65.00;;;;;;4969925;28;20521;-73
2021/12/07 13:14:24;;;;;;;4.20;2.00;;;6.70;65.70;;;;;;4963797;28;20414;-73
2021/12/07 13:16:54;;;;;;;5.40;1.40;;;6.80;65.40;;;;;;4957978;28;21183;-74
2021/12/07 13:19:20;;;;;;;2.60;1.57;;;6.90;65.60;;;;;;4968286;28;20436;-73
2021/12/07 13:21:48;;;;;;;3.90;1.70;;;6.70;65.70;;;;;;4971545;28;20423;-74
2021/12/07 13:24:20;;;;;;;2.23;1.53;;;6.70;66.40;;;;;;4972458;28;20510;-75
2021/12/07 13:26:53;;;;;;;5.13;1.50;;;6.70;66.40;;;;;;4959147;28;20424;-75
2021/12/07 13:29:27;;;;;;;3.73;1.57;;;6.80;66.40;;;;;;4972179;28;20443;-75
2021/12/07 13:32:02;;;;;;;7.53;2.37;;;6.80;66.90;;;;;;5009120;28;20442;-74
2021/12/07 13:34:31;;;;;;;3.77;1.60;;;6.70;67.50;;;;;;4967736;28;20493;-76
2021/12/07 13:37:08;;;;;;;2.47;1.37;;;6.70;67.90;;;;;;4991667;28;20442;-73
2021/12/07 13:39:39;;;;;;;4.80;2.00;;;6.60;68.20;;;;;;4959300;28;21071;-74
2021/12/07 13:42:17;;;;;;;5.10;1.60;;;6.70;67.90;;;;;;4958511;28;20431;-74
2021/12/07 13:44:46;;;;;;;6.20;1.97;;;6.50;67.70;;;;;;4965562;28;20419;-74
2021/12/07 13:47:21;;;;;;;3.83;1.50;;;6.50;68.50;;;;;;4959883;28;20422;-75
2021/12/07 13:50:15;;;;;;;2.10;1.50;;;6.40;69.20;;;;;;4966097;28;20839;-73
2021/12/07 13:52:44;;;;;;;3.13;1.90;;;6.30;70.40;;;;;;4979179;28;20462;-75
2021/12/07 13:55:12;;;;;;;6.40;2.47;;;6.20;71.40;;;;;;4985980;28;20495;-75
2021/12/07 13:57:41;;;;;;;5.40;2.03;;;6.10;72.30;;;;;;4962813;28;20451;-75
2021/12/07 14:00:12;;;;;;;4.13;2.00;;;6.10;72.70;;;;;;4962301;28;20930;-75
2021/12/07 14:02:49;;;;;;;2.60;1.50;;;6.00;73.00;;;;;;4958409;28;20473;-74
2021/12/07 14:05:22;;;;;;;7.30;2.03;;;5.90;73.20;;;;;;4958697;28;20847;-75
2021/12/07 14:07:50;;;;;;;5.80;2.10;;;6.00;73.60;;;;;;4965261;28;20442;-74
2021/12/07 14:10:29;;;;;;;4.53;2.67;;;5.90;73.60;;;;;;4963474;28;20450;-74
2021/12/07 14:12:57;;;;;;;3.50;1.80;;;5.90;73.90;;;;;;4960143;28;20492;-75
2021/12/07 14:15:22;;;;;;;4.93;2.00;;;5.80;73.90;;;;;;4962562;28;20565;-74
2021/12/07 14:17:54;;;;;;;8.17;2.13;;;5.80;73.60;;;;;;4964012;28;20545;-74
2021/12/07 14:20:35;;;;;;;4.67;2.20;;;5.70;73.90;;;;;;4954508;28;20210;-75
2021/12/07 14:23:30;;;;;;;5.90;2.17;;;5.80;73.70;;;;;;4964782;28;20454;-75
2021/12/07 14:25:59;;;;;;;3.80;1.60;;;5.80;73.30;;;;;;4962100;28;20438;-74
2021/12/07 14:28:39;;;;;;;9.00;1.90;;;5.80;72.90;;;;;;4956126;28;20451;-74
2021/12/07 14:31:17;;;;;;;5.60;1.73;;;5.80;72.90;;;;;;4962399;28;20514;-75
2021/12/07 14:33:51;;;;;;;6.47;2.30;;;5.80;71.80;;;;;;4963167;28;20431;-74
2021/12/07 14:36:21;;;;;;;9.97;2.07;;;5.80;71.70;;;;;;4986301;28;20475;-74
2021/12/07 14:38:51;;;;;;;6.37;2.20;;;5.90;71.60;;;;;;4961857;28;20462;-74
2021/12/07 14:41:20;;;;;;;4.00;1.60;;;6.00;70.20;;;;;;4958292;28;20443;-74
2021/12/07 14:43:46;;;;;;;4.43;1.50;;;6.00;70.10;;;;;;4973042;28;20842;-75
2021/12/07 14:46:16;;;;;;;7.60;1.70;;;6.10;69.50;;;;;;4962292;28;20470;-74
2021/12/07 14:48:44;;;;;;;5.53;2.00;;;5.90;69.10;;;;;;4968801;28;20458;-74
2021/12/07 14:51:15;;;;;;;3.23;1.60;;;5.90;69.20;;;;;;4967217;28;20426;-74
2021/12/07 14:53:47;;;;;;;2.03;1.10;;;5.90;69.10;;;;;;4959087;28;20526;-73
2021/12/07 14:56:15;;;;;;;4.30;2.20;;;5.80;68.30;;;;;;4961885;28;20475;-75
2021/12/07 14:58:43;;;;;;;2.60;1.20;;;5.80;68.90;;;;;;4961151;28;20822;-74
2021/12/07 15:01:21;;;;;;;11.33;1.60;;;5.90;68.80;;;;;;4959910;28;20431;-73